createdAt,value
2023-02-23T00:00:21.114Z,58.23
2023-02-23T00:02:47.741Z,50.90
2023-02-23T00:05:14.333Z,61.43
2023-02-23T00:07:43.574Z,54.17
2023-02-23T00:10:11.921Z,62.07
2023-02-23T00:12:38.598Z,69.17
2023-02-23T00:15:05.297Z,63.10
2023-02-23T00:17:33.499Z,66.73
2023-02-23T00:20:00.120Z,62.83
2023-02-23T00:22:27.201Z,58.67
2023-02-23T00:24:53.989Z,61.70
2023-02-23T00:27:21.219Z,60.37
2023-02-23T00:29:49.498Z,55.87
2023-02-23T00:32:20.338Z,52.80
2023-02-23T00:34:50.398Z,57.47
2023-02-23T00:37:16.980Z,58.63
2023-02-23T00:39:43.718Z,54.00
2023-02-23T00:42:10.439Z,49.43
2023-02-23T00:44:40.473Z,61.57
2023-02-23T00:47:07.157Z,53.80
2023-02-23T00:49:36.033Z,64.10
2023-02-23T00:52:04.110Z,53.73
2023-02-23T00:54:30.698Z,49.37
2023-02-23T00:56:57.191Z,54.10
2023-02-23T00:59:53.323Z,55.20
2023-02-23T01:02:34.066Z,71.53
2023-02-23T01:05:15.738Z,55.30
2023-02-23T01:07:42.276Z,47.27
2023-02-23T01:10:21.311Z,50.60
2023-02-23T01:12:48.344Z,53.13
2023-02-23T01:15:14.829Z,58.47
2023-02-23T01:17:42.941Z,45.20
2023-02-23T01:20:17.799Z,45.70
2023-02-23T01:22:44.462Z,50.47
2023-02-23T01:25:24.334Z,55.93
2023-02-23T01:27:54.439Z,48.37
2023-02-23T01:30:20.916Z,47.23
2023-02-23T01:32:51.029Z,44.40
2023-02-23T01:35:25.742Z,48.50
2023-02-23T01:37:55.067Z,54.20
2023-02-23T01:40:36.999Z,54.60
2023-02-23T01:43:03.668Z,52.70
2023-02-23T01:45:34.519Z,46.93
2023-02-23T01:48:01.753Z,59.40
2023-02-23T01:50:28.243Z,53.83
2023-02-23T01:52:54.819Z,67.47
2023-02-23T01:55:24.183Z,52.47
2023-02-23T01:57:50.805Z,47.80
2023-02-23T02:00:20.072Z,48.90
2023-02-23T02:02:48.724Z,49.40
2023-02-23T02:05:15.262Z,57.50
2023-02-23T02:07:41.806Z,59.77
2023-02-23T02:10:11.355Z,49.87
2023-02-23T02:12:38.746Z,55.87
2023-02-23T02:15:05.420Z,61.90
2023-02-23T02:17:32.012Z,60.27
2023-02-23T02:19:58.574Z,54.60
2023-02-23T02:22:25.720Z,59.17
2023-02-23T02:24:52.379Z,54.33
2023-02-23T02:27:19.244Z,55.37
2023-02-23T02:29:45.919Z,65.93
2023-02-23T02:32:12.588Z,61.27
2023-02-23T02:34:39.161Z,55.57
2023-02-23T02:37:07.002Z,58.20
2023-02-23T02:39:36.943Z,56.73
2023-02-23T02:42:03.433Z,58.90
2023-02-23T02:44:30.077Z,55.97
2023-02-23T02:46:57.328Z,60.53
2023-02-23T02:49:23.950Z,67.97
2023-02-23T02:51:50.500Z,56.20
2023-02-23T02:54:17.038Z,61.00
2023-02-23T02:56:43.516Z,52.80
2023-02-23T02:59:28.952Z,61.07
2023-02-23T03:02:14.329Z,62.77
2023-02-23T03:05:14.076Z,56.00
2023-02-23T03:07:59.533Z,67.57
2023-02-23T03:10:44.870Z,56.47
2023-02-23T03:13:30.125Z,65.63
2023-02-23T03:16:15.446Z,59.17
2023-02-23T03:19:08.708Z,60.83
2023-02-23T03:21:54.085Z,63.60
2023-02-23T03:24:39.508Z,65.37
2023-02-23T03:27:24.762Z,61.20
2023-02-23T03:30:10.202Z,55.50
2023-02-23T03:32:55.480Z,61.47
2023-02-23T03:35:40.813Z,61.13
2023-02-23T03:38:35.386Z,54.00
2023-02-23T03:41:20.984Z,58.30
2023-02-23T03:44:06.504Z,66.90
2023-02-23T03:46:51.785Z,60.97
2023-02-23T03:49:37.041Z,60.47
2023-02-23T03:52:22.577Z,56.03
2023-02-23T03:55:07.995Z,66.80
2023-02-23T03:57:53.234Z,67.53
2023-02-23T04:00:38.466Z,53.20
2023-02-23T04:03:23.723Z,58.23
2023-02-23T04:06:11.186Z,70.43
2023-02-23T04:08:56.573Z,51.77
2023-02-23T04:11:42.284Z,56.87
2023-02-23T04:14:08.741Z,63.43
2023-02-23T04:16:35.203Z,60.90
2023-02-23T04:19:01.774Z,71.67
2023-02-23T04:21:28.277Z,56.77
2023-02-23T04:23:55.887Z,60.37
2023-02-23T04:26:22.423Z,60.13
2023-02-23T04:28:48.913Z,54.40
2023-02-23T04:31:19.072Z,53.37
2023-02-23T04:33:45.725Z,64.20
2023-02-23T04:36:12.188Z,62.50
2023-02-23T04:38:38.683Z,56.20
2023-02-23T04:41:05.146Z,58.50
2023-02-23T04:43:31.586Z,53.30
2023-02-23T04:45:58.100Z,50.37
2023-02-23T04:48:28.162Z,60.43
2023-02-23T04:50:54.748Z,61.03
2023-02-23T04:53:23.863Z,61.80
2023-02-23T04:55:50.529Z,52.00
2023-02-23T04:58:17.062Z,58.47
2023-02-23T05:00:43.861Z,62.80
2023-02-23T05:03:12.130Z,58.57
2023-02-23T05:05:38.627Z,65.17
2023-02-23T05:08:05.182Z,70.33
2023-02-23T05:10:31.675Z,68.30
2023-02-23T05:12:59.576Z,63.23
2023-02-23T05:15:26.144Z,63.10
2023-02-23T05:17:52.634Z,54.20
2023-02-23T05:20:19.191Z,58.10
2023-02-23T05:22:45.680Z,68.40
2023-02-23T05:25:12.150Z,57.53
2023-02-23T05:27:38.624Z,69.33
2023-02-23T05:30:05.073Z,69.27
2023-02-23T05:32:31.630Z,74.20
2023-02-23T05:34:58.156Z,66.60
2023-02-23T05:37:24.633Z,52.97
2023-02-23T05:39:51.139Z,81.53
2023-02-23T05:42:17.667Z,66.00
2023-02-23T05:44:44.277Z,83.80
2023-02-23T05:47:10.879Z,80.67
2023-02-23T05:49:37.446Z,68.77
2023-02-23T05:52:04.011Z,72.63
2023-02-23T05:54:30.521Z,75.60
2023-02-23T05:56:57.076Z,62.30
2023-02-23T05:59:23.644Z,67.13
2023-02-23T06:01:50.316Z,62.30
2023-02-23T06:04:17.282Z,58.43
2023-02-23T06:06:43.894Z,57.73
2023-02-23T06:09:10.467Z,65.97
2023-02-23T06:11:37.018Z,55.10
2023-02-23T06:14:03.542Z,54.03
2023-02-23T06:16:30.310Z,54.60
2023-02-23T06:18:56.927Z,49.60
2023-02-23T06:21:25.048Z,57.60
2023-02-23T06:23:52.339Z,52.43
2023-02-23T06:26:18.824Z,61.20
2023-02-23T06:28:45.350Z,58.77
2023-02-23T06:31:12.019Z,62.33
2023-02-23T06:33:38.659Z,76.23
2023-02-23T06:36:05.357Z,49.87
2023-02-23T06:38:31.901Z,51.10
2023-02-23T06:40:58.424Z,59.20
2023-02-23T06:43:24.962Z,52.53
2023-02-23T06:45:51.574Z,67.90
2023-02-23T06:48:18.089Z,45.53
2023-02-23T06:50:44.621Z,41.63
2023-02-23T06:53:11.153Z,55.83
2023-02-23T06:55:37.643Z,80.50
2023-02-23T06:58:04.906Z,49.80
2023-02-23T07:00:31.416Z,50.33
2023-02-23T07:02:59.747Z,53.10
2023-02-23T07:05:26.311Z,51.30
2023-02-23T07:07:52.822Z,53.97
2023-02-23T07:10:19.324Z,50.60
2023-02-23T07:12:45.883Z,65.13
2023-02-23T07:15:12.398Z,67.57
2023-02-23T07:17:38.932Z,57.97
2023-02-23T07:20:05.419Z,66.60
2023-02-23T07:22:34.039Z,49.80
2023-02-23T07:25:00.544Z,49.83
2023-02-23T07:27:27.496Z,53.00
2023-02-23T07:29:54.024Z,58.03
2023-02-23T07:32:20.637Z,55.30
2023-02-23T07:34:47.655Z,50.10
2023-02-23T07:37:14.186Z,51.63
2023-02-23T07:39:40.719Z,52.97
2023-02-23T07:42:07.218Z,60.90
2023-02-23T07:44:33.756Z,75.30
2023-02-23T07:47:00.234Z,65.63
2023-02-23T07:49:26.775Z,69.43
2023-02-23T07:51:53.362Z,87.40
2023-02-23T07:54:19.971Z,79.50
2023-02-23T07:56:46.464Z,94.77
2023-02-23T07:59:14.067Z,72.87
2023-02-23T08:01:40.590Z,83.70
2023-02-23T08:04:07.275Z,82.93
2023-02-23T08:06:33.874Z,77.60
2023-02-23T08:09:01.113Z,86.73
2023-02-23T08:11:29.032Z,71.70
2023-02-23T08:13:59.764Z,74.27
2023-02-23T08:16:26.361Z,69.00
2023-02-23T08:18:52.890Z,80.50
2023-02-23T08:21:19.652Z,68.27
2023-02-23T08:23:46.255Z,73.00
2023-02-23T08:26:12.747Z,71.47
2023-02-23T08:28:41.730Z,74.03
2023-02-23T08:31:08.407Z,92.40
2023-02-23T08:33:35.160Z,76.90
2023-02-23T08:36:02.728Z,107.83
2023-02-23T08:38:29.284Z,75.13
2023-02-23T08:40:55.796Z,78.57
2023-02-23T08:43:22.292Z,80.17
2023-02-23T08:45:48.799Z,123.17
2023-02-23T08:48:15.291Z,116.67
2023-02-23T08:50:41.798Z,96.60
2023-02-23T08:53:08.962Z,159.93
2023-02-23T08:55:35.575Z,159.83
2023-02-23T08:58:02.062Z,163.43
2023-02-23T09:00:28.574Z,98.90
2023-02-23T09:02:55.108Z,109.10
2023-02-23T09:05:21.689Z,114.00
2023-02-23T09:07:49.041Z,148.70
2023-02-23T09:10:15.605Z,115.47
2023-02-23T09:12:42.209Z,106.37
2023-02-23T09:15:08.720Z,104.40
2023-02-23T09:17:35.290Z,129.93
2023-02-23T09:20:02.127Z,93.57
2023-02-23T09:22:28.627Z,110.00
2023-02-23T09:24:55.108Z,115.63
2023-02-23T09:27:21.612Z,135.87
2023-02-23T09:29:48.160Z,113.87
2023-02-23T09:32:14.742Z,126.93
2023-02-23T09:34:41.339Z,95.93
2023-02-23T09:37:08.553Z,113.93
2023-02-23T09:39:38.624Z,94.40
2023-02-23T09:42:08.068Z,105.10
2023-02-23T09:44:34.556Z,98.43
2023-02-23T09:47:01.050Z,107.10
2023-02-23T09:49:27.540Z,101.50
2023-02-23T09:51:57.442Z,102.73
2023-02-23T09:54:24.234Z,120.53
2023-02-23T09:56:56.240Z,104.87
2023-02-23T10:04:39.942Z,110.30
2023-02-23T10:07:06.566Z,100.73
2023-02-23T10:09:33.056Z,103.13
2023-02-23T10:11:59.561Z,98.80
2023-02-23T10:14:26.055Z,83.03
2023-02-23T10:16:52.678Z,96.10
2023-02-23T10:19:19.179Z,108.87
2023-02-23T10:21:45.654Z,100.00
2023-02-23T10:24:12.518Z,96.70
2023-02-23T10:26:38.998Z,81.17
2023-02-23T10:29:05.461Z,87.70
2023-02-23T10:31:32.078Z,81.43
2023-02-23T10:33:58.771Z,88.67
2023-02-23T10:36:26.299Z,88.47
2023-02-23T10:38:52.869Z,107.30
2023-02-23T10:41:19.634Z,90.60
2023-02-23T10:43:46.372Z,82.77
2023-02-23T10:46:12.892Z,72.60
2023-02-23T10:48:45.549Z,74.10
2023-02-23T10:51:12.267Z,82.30
2023-02-23T10:53:39.891Z,77.70
2023-02-23T10:56:06.545Z,78.27
2023-02-23T10:58:33.074Z,84.33
2023-02-23T11:00:59.578Z,68.23
2023-02-23T11:03:26.406Z,68.33
2023-02-23T11:05:53.740Z,78.67
2023-02-23T11:08:20.290Z,76.00
2023-02-23T11:10:48.723Z,85.20
2023-02-23T11:13:15.211Z,81.87
2023-02-23T11:15:50.686Z,80.90
2023-02-23T11:18:17.587Z,69.23
2023-02-23T11:20:44.316Z,79.00
2023-02-23T11:23:14.758Z,63.23
2023-02-23T11:25:43.096Z,80.67
2023-02-23T11:28:09.567Z,73.00
2023-02-23T11:30:37.499Z,81.03
2023-02-23T11:33:10.508Z,83.57
2023-02-23T11:35:37.038Z,99.87
2023-02-23T11:38:05.447Z,84.63
2023-02-23T11:40:32.132Z,89.27
2023-02-23T11:43:01.141Z,80.87
2023-02-23T11:45:27.864Z,83.50
2023-02-23T11:47:54.380Z,79.67
2023-02-23T11:50:20.936Z,80.60
2023-02-23T11:52:47.598Z,69.73
2023-02-23T11:55:14.118Z,82.43
2023-02-23T11:57:41.637Z,82.83
2023-02-23T12:00:08.195Z,75.70
2023-02-23T12:02:35.172Z,83.87
2023-02-23T12:05:01.969Z,67.40
2023-02-23T12:07:29.532Z,79.90
2023-02-23T12:09:56.322Z,66.60
2023-02-23T12:12:22.839Z,86.40
2023-02-23T12:14:51.162Z,77.27
2023-02-23T12:17:17.724Z,72.60
2023-02-23T12:19:44.945Z,99.50
2023-02-23T12:22:12.199Z,75.23
2023-02-23T12:24:38.688Z,93.83
2023-02-23T12:27:06.221Z,67.83
2023-02-23T12:29:32.813Z,66.27
2023-02-23T12:32:02.737Z,80.07
2023-02-23T12:34:29.455Z,70.33
2023-02-23T12:36:55.959Z,54.20
2023-02-23T12:39:22.531Z,63.73
2023-02-23T12:41:49.393Z,59.87
2023-02-23T12:44:17.296Z,75.07
2023-02-23T12:46:47.369Z,68.00
2023-02-23T12:49:13.949Z,79.10
2023-02-23T12:51:40.441Z,93.13
2023-02-23T12:54:06.964Z,100.30
2023-02-23T12:56:33.467Z,107.17
2023-02-23T12:59:00.077Z,104.67
2023-02-23T13:01:26.966Z,113.07
2023-02-23T13:03:53.547Z,115.47
2023-02-23T13:06:20.506Z,105.63
2023-02-23T13:08:46.984Z,101.70
2023-02-23T13:11:13.524Z,88.00
2023-02-23T13:13:40.014Z,97.23
2023-02-23T13:16:06.515Z,113.30
2023-02-23T13:18:33.087Z,65.37
2023-02-23T13:20:59.655Z,82.10
2023-02-23T13:23:26.390Z,292.27
2023-02-23T13:25:54.071Z,64.97
2023-02-23T13:28:20.581Z,114.33
2023-02-23T13:30:47.657Z,60.53
2023-02-23T13:33:14.403Z,69.50
2023-02-23T13:35:42.236Z,66.87
2023-02-23T13:38:08.753Z,119.07
2023-02-23T13:40:35.291Z,71.23
2023-02-23T13:43:02.977Z,92.87
2023-02-23T13:45:29.456Z,92.87
2023-02-23T13:47:55.977Z,96.53
2023-02-23T13:50:22.680Z,104.17
2023-02-23T13:52:49.211Z,83.37
2023-02-23T13:55:15.708Z,109.50
2023-02-23T13:57:42.186Z,82.60
2023-02-23T14:00:08.773Z,92.20
2023-02-23T14:02:35.465Z,94.57
2023-02-23T14:05:02.041Z,94.07
2023-02-23T14:07:28.719Z,75.17
2023-02-23T14:09:55.195Z,81.93
2023-02-23T14:12:21.897Z,69.60
2023-02-23T14:14:48.470Z,102.80
2023-02-23T14:17:14.974Z,95.80
2023-02-23T14:19:41.486Z,83.37
2023-02-23T14:22:09.721Z,79.03
2023-02-23T14:24:36.235Z,96.80
2023-02-23T14:27:03.477Z,72.47
2023-02-23T14:29:31.775Z,88.43
2023-02-23T14:31:58.420Z,85.03
2023-02-23T14:34:24.965Z,88.63
2023-02-23T14:36:55.624Z,72.57
2023-02-23T14:39:22.106Z,79.50
2023-02-23T14:41:50.107Z,77.17
2023-02-23T14:44:28.207Z,79.07
2023-02-23T14:46:56.888Z,90.00
2023-02-23T14:49:23.403Z,80.13
2023-02-23T14:51:50.148Z,72.27
2023-02-23T14:54:16.626Z,65.83
2023-02-23T14:56:46.549Z,62.50
2023-02-23T14:59:13.182Z,65.27
2023-02-23T15:01:39.748Z,60.27
2023-02-23T15:04:06.258Z,71.40
2023-02-23T15:06:32.747Z,50.40
2023-02-23T15:08:59.233Z,64.90
2023-02-23T15:11:25.754Z,59.13
2023-02-23T15:13:52.269Z,44.80
2023-02-23T15:16:18.834Z,60.30
2023-02-23T15:19:04.387Z,45.60
2023-02-23T15:21:30.982Z,62.53
2023-02-23T15:23:57.693Z,62.67
2023-02-23T15:26:24.755Z,73.80
2023-02-23T15:28:51.324Z,54.10
2023-02-23T15:31:19.363Z,53.77
2023-02-23T15:33:48.571Z,57.20
2023-02-23T15:36:15.085Z,57.83
2023-02-23T15:38:43.934Z,58.30
2023-02-23T15:41:10.875Z,58.57
2023-02-23T15:43:37.361Z,55.90
2023-02-23T15:46:04.273Z,48.97
2023-02-23T15:48:30.836Z,58.40
2023-02-23T15:50:57.664Z,33.73
2023-02-23T15:53:24.264Z,37.77
2023-02-23T15:55:51.659Z,43.50
2023-02-23T15:58:18.211Z,37.10
2023-02-23T16:00:44.851Z,43.00
2023-02-23T16:03:11.425Z,44.50
2023-02-23T16:05:46.589Z,30.43
2023-02-23T16:08:13.755Z,33.30
2023-02-23T16:10:40.322Z,35.33
2023-02-23T16:13:06.813Z,30.27
2023-02-23T16:15:33.350Z,42.97
2023-02-23T16:17:59.865Z,52.03
2023-02-23T16:20:26.364Z,38.70
2023-02-23T16:22:54.693Z,35.80
2023-02-23T16:25:21.206Z,40.37
2023-02-23T16:27:47.847Z,45.17
2023-02-23T16:30:14.415Z,56.90
2023-02-23T16:32:41.198Z,54.20
2023-02-23T16:35:07.810Z,45.13
2023-02-23T16:37:34.291Z,57.23
2023-02-23T16:40:01.332Z,50.90
2023-02-23T16:42:27.904Z,59.17
2023-02-23T16:47:39.151Z,73.67
2023-02-23T16:50:18.896Z,58.37
2023-02-23T16:52:46.175Z,60.83
2023-02-23T16:55:14.682Z,68.00
2023-02-23T16:57:41.180Z,64.33
2023-02-23T17:00:15.353Z,69.93
2023-02-23T17:02:41.957Z,58.53
2023-02-23T17:05:08.465Z,54.30
2023-02-23T17:07:36.476Z,61.10
2023-02-23T17:10:03.055Z,54.23
2023-02-23T17:12:29.685Z,57.80
2023-02-23T17:14:56.175Z,72.50
2023-02-23T17:17:22.687Z,73.03
2023-02-23T17:19:49.228Z,79.47
2023-02-23T17:22:15.709Z,56.17
2023-02-23T17:24:42.218Z,54.07
2023-02-23T17:27:08.776Z,73.00
2023-02-23T17:29:35.244Z,113.27
2023-02-23T17:32:01.942Z,57.00
2023-02-23T17:34:28.645Z,63.40
2023-02-23T17:36:55.136Z,49.63
2023-02-23T17:39:21.616Z,55.43
2023-02-23T17:41:48.138Z,51.57
2023-02-23T17:44:14.617Z,47.87
2023-02-23T17:46:41.098Z,60.53
2023-02-23T17:49:07.658Z,52.63
2023-02-23T17:51:34.132Z,59.67
2023-02-23T17:54:00.642Z,49.17
2023-02-23T17:56:28.108Z,40.70
2023-02-23T17:58:54.611Z,49.93
2023-02-23T18:01:21.399Z,52.30
2023-02-23T18:03:49.168Z,53.90
2023-02-23T18:06:16.771Z,52.17
2023-02-23T18:08:43.700Z,52.20
2023-02-23T18:11:10.220Z,48.90
2023-02-23T18:13:36.770Z,55.07
2023-02-23T18:16:03.284Z,46.33
2023-02-23T18:18:29.822Z,62.50
2023-02-23T18:20:56.333Z,65.47
2023-02-23T18:23:22.961Z,48.00
2023-02-23T18:25:49.604Z,69.10
2023-02-23T18:28:16.198Z,49.53
2023-02-23T18:30:42.705Z,42.30
2023-02-23T18:33:09.453Z,54.00
2023-02-23T18:35:36.160Z,41.57
2023-02-23T18:38:02.819Z,45.47
2023-02-23T18:40:29.462Z,46.07
2023-02-23T18:42:55.986Z,43.20
2023-02-23T18:45:22.461Z,53.13
2023-02-23T18:47:49.072Z,40.87
2023-02-23T18:50:19.022Z,48.50
2023-02-23T18:52:46.265Z,41.93
2023-02-23T18:55:12.825Z,38.17
2023-02-23T18:57:39.312Z,60.50
2023-02-23T19:00:07.327Z,57.30
2023-02-23T19:02:33.901Z,44.77
2023-02-23T19:05:02.788Z,36.80
2023-02-23T19:07:30.496Z,43.73
2023-02-23T19:10:01.867Z,45.73
2023-02-23T19:12:28.401Z,37.63
2023-02-23T19:14:56.654Z,50.63
2023-02-23T19:17:24.279Z,41.80
2023-02-23T19:19:51.284Z,42.67
2023-02-23T19:22:17.752Z,37.27
2023-02-23T19:24:44.277Z,40.30
2023-02-23T19:27:10.821Z,39.67
2023-02-23T19:29:37.628Z,35.77
2023-02-23T19:32:04.419Z,34.10
2023-02-23T19:34:31.357Z,40.20
2023-02-23T19:36:57.946Z,37.63
2023-02-23T19:39:24.642Z,59.83
2023-02-23T19:41:51.127Z,32.97
2023-02-23T19:44:17.668Z,37.50
2023-02-23T19:46:44.153Z,44.87
2023-02-23T19:49:10.709Z,41.40
2023-02-23T19:51:37.219Z,49.00
2023-02-23T19:54:03.776Z,36.80
2023-02-23T19:56:30.322Z,54.93
2023-02-23T19:58:56.911Z,36.37
2023-02-23T20:01:23.616Z,51.33
2023-02-23T20:03:57.286Z,55.43
2023-02-23T20:06:23.830Z,37.87
2023-02-23T20:08:52.494Z,52.13
2023-02-23T20:11:19.424Z,58.23
2023-02-23T20:13:46.433Z,50.63
2023-02-23T20:16:13.089Z,55.93
2023-02-23T20:18:39.758Z,61.10
2023-02-23T20:21:06.262Z,60.30
2023-02-23T20:23:32.748Z,69.40
2023-02-23T20:25:59.220Z,70.27
2023-02-23T20:28:25.847Z,59.60
2023-02-23T20:30:52.506Z,60.63
2023-02-23T20:33:19.051Z,58.13
2023-02-23T20:35:45.524Z,63.27
2023-02-23T20:38:15.112Z,55.53
2023-02-23T20:40:41.660Z,63.67
2023-02-23T20:43:08.195Z,65.20
2023-02-23T20:45:34.662Z,75.03
2023-02-23T20:48:03.038Z,64.40
2023-02-23T20:50:33.906Z,65.03
2023-02-23T20:53:03.760Z,64.23
2023-02-23T20:55:30.278Z,72.97
2023-02-23T20:57:56.904Z,66.63
2023-02-23T21:00:24.149Z,66.37
2023-02-23T21:02:55.401Z,71.20
2023-02-23T21:05:22.181Z,75.40
2023-02-23T21:07:49.715Z,70.17
2023-02-23T21:10:16.238Z,66.50
2023-02-23T21:12:42.748Z,74.93
2023-02-23T21:15:09.404Z,87.73
2023-02-23T21:17:36.445Z,60.77
2023-02-23T21:20:05.554Z,82.20
2023-02-23T21:22:32.027Z,82.20
2023-02-23T21:25:00.622Z,72.40
2023-02-23T21:27:27.314Z,84.47
2023-02-23T21:29:55.168Z,77.40
2023-02-23T21:32:21.756Z,61.43
2023-02-23T21:34:48.339Z,88.67
2023-02-23T21:37:14.901Z,72.90
2023-02-23T21:39:41.494Z,75.37
2023-02-23T21:42:08.196Z,77.47
2023-02-23T21:44:34.742Z,85.73
2023-02-23T21:47:04.802Z,88.23
2023-02-23T21:49:31.344Z,75.50
2023-02-23T21:51:58.030Z,98.67
2023-02-23T21:54:24.620Z,66.87
2023-02-23T21:56:51.122Z,71.77
2023-02-23T21:59:17.620Z,79.57
2023-02-23T22:01:44.199Z,82.37
2023-02-23T22:04:10.701Z,75.80
2023-02-23T22:06:38.307Z,75.73
2023-02-23T22:09:05.654Z,79.53
2023-02-23T22:11:35.572Z,75.43
2023-02-23T22:14:02.184Z,93.73
2023-02-23T22:16:28.801Z,91.17
2023-02-23T22:18:55.493Z,102.20
2023-02-23T22:21:22.677Z,93.60
2023-02-23T22:23:50.132Z,100.13
2023-02-23T22:26:16.632Z,113.73
2023-02-23T22:28:43.128Z,105.07
2023-02-23T22:31:09.774Z,108.57
2023-02-23T22:33:36.349Z,117.10
2023-02-23T22:36:03.336Z,119.23
2023-02-23T22:38:30.637Z,92.73
2023-02-23T22:40:57.127Z,97.20
2023-02-23T22:43:23.647Z,102.27
2023-02-23T22:45:50.133Z,63.60
2023-02-23T22:48:16.641Z,41.73
2023-02-23T22:50:43.133Z,16.43
2023-02-23T22:53:09.646Z,19.53
2023-02-23T22:55:36.177Z,24.17
2023-02-23T22:58:08.362Z,19.37
2023-02-23T23:00:34.874Z,14.77
2023-02-23T23:03:05.520Z,22.27
2023-02-23T23:05:32.622Z,7.87
2023-02-23T23:07:59.325Z,12.50
2023-02-23T23:10:25.800Z,8.10
2023-02-23T23:12:52.357Z,9.87
2023-02-23T23:15:19.890Z,8.77
2023-02-23T23:17:48.563Z,7.93
2023-02-23T23:20:15.253Z,7.03
2023-02-23T23:22:41.773Z,5.10
2023-02-23T23:25:14.524Z,5.30
2023-02-23T23:27:41.335Z,9.70
2023-02-23T23:30:08.199Z,8.30
2023-02-23T23:32:34.853Z,9.00
2023-02-23T23:35:01.503Z,8.27
2023-02-23T23:37:29.015Z,8.83
2023-02-23T23:40:05.332Z,15.40
2023-02-23T23:42:31.883Z,8.40
2023-02-23T23:44:58.438Z,7.20
2023-02-23T23:47:25.894Z,6.57
2023-02-23T23:49:52.426Z,7.57
2023-02-23T23:52:19.010Z,5.67
2023-02-23T23:54:45.556Z,7.13
2023-02-23T23:57:12.400Z,10.00
2023-02-23T23:59:45.627Z,5.60
